sensor_id;sensor_type;location;lat;lon;timestamp;P1;durP1;ratioP1;P2;durP2;ratioP2
27402;SDS011;14862;49.494;8.530;2022-10-16T00:01:41;4.05;;;3.60;;
27402;SDS011;14862;49.494;8.530;2022-10-16T00:04:06;9.90;;;4.35;;
27402;SDS011;14862;49.494;8.530;2022-10-16T00:06:31;6.90;;;3.83;;
27402;SDS011;14862;49.494;8.530;2022-10-16T00:08:57;5.03;;;3.78;;
27402;SDS011;14862;49.494;8.530;2022-10-16T00:11:26;7.95;;;4.38;;
27402;SDS011;14862;49.494;8.530;2022-10-16T00:13:54;9.82;;;4.05;;
27402;SDS011;14862;49.494;8.530;2022-10-16T00:16:20;5.32;;;3.70;;
27402;SDS011;14862;49.494;8.530;2022-10-16T00:18:45;5.93;;;3.97;;
27402;SDS011;14862;49.494;8.530;2022-10-16T00:21:12;7.57;;;4.25;;
27402;SDS011;14862;49.494;8.530;2022-10-16T00:23:37;5.68;;;4.30;;
27402;SDS011;14862;49.494;8.530;2022-10-16T00:26:05;12.60;;;4.97;;
27402;SDS011;14862;49.494;8.530;2022-10-16T00:28:31;9.65;;;3.65;;
27402;SDS011;14862;49.494;8.530;2022-10-16T00:30:57;7.63;;;4.18;;
27402;SDS011;14862;49.494;8.530;2022-10-16T00:33:22;5.28;;;3.97;;
27402;SDS011;14862;49.494;8.530;2022-10-16T00:35:47;5.72;;;4.25;;
27402;SDS011;14862;49.494;8.530;2022-10-16T00:38:13;5.38;;;3.78;;
27402;SDS011;14862;49.494;8.530;2022-10-16T00:40:38;5.25;;;3.80;;
27402;SDS011;14862;49.494;8.530;2022-10-16T00:43:09;7.85;;;4.13;;
27402;SDS011;14862;49.494;8.530;2022-10-16T00:45:34;5.03;;;4.30;;
27402;SDS011;14862;49.494;8.530;2022-10-16T00:48:00;3.83;;;3.42;;
27402;SDS011;14862;49.494;8.530;2022-10-16T00:50:30;4.47;;;3.95;;
27402;SDS011;14862;49.494;8.530;2022-10-16T00:52:55;6.43;;;3.50;;
27402;SDS011;14862;49.494;8.530;2022-10-16T00:55:21;9.25;;;3.95;;
27402;SDS011;14862;49.494;8.530;2022-10-16T00:57:46;6.72;;;3.63;;
27402;SDS011;14862;49.494;8.530;2022-10-16T01:00:14;7.40;;;3.47;;
27402;SDS011;14862;49.494;8.530;2022-10-16T01:02:40;7.70;;;3.85;;
27402;SDS011;14862;49.494;8.530;2022-10-16T01:05:05;3.65;;;3.30;;
27402;SDS011;14862;49.494;8.530;2022-10-16T01:12:40;4.50;;;3.97;;
27402;SDS011;14862;49.494;8.530;2022-10-16T01:15:08;12.52;;;3.80;;
27402;SDS011;14862;49.494;8.530;2022-10-16T01:17:42;6.18;;;3.50;;
27402;SDS011;14862;49.494;8.530;2022-10-16T01:23:20;7.57;;;3.70;;
27402;SDS011;14862;49.494;8.530;2022-10-16T01:25:25;8.43;;;3.78;;
27402;SDS011;14862;49.494;8.530;2022-10-16T01:27:54;6.22;;;3.38;;
27402;SDS011;14862;49.494;8.530;2022-10-16T01:30:24;3.22;;;2.92;;
27402;SDS011;14862;49.494;8.530;2022-10-16T01:32:59;6.40;;;3.58;;
27402;SDS011;14862;49.494;8.530;2022-10-16T01:35:34;5.85;;;3.80;;
27402;SDS011;14862;49.494;8.530;2022-10-16T01:38:07;7.32;;;3.85;;
27402;SDS011;14862;49.494;8.530;2022-10-16T01:40:34;4.35;;;3.92;;
27402;SDS011;14862;49.494;8.530;2022-10-16T01:45:29;6.75;;;4.10;;
27402;SDS011;14862;49.494;8.530;2022-10-16T01:47:56;8.38;;;3.55;;
27402;SDS011;14862;49.494;8.530;2022-10-16T01:50:22;5.68;;;4.40;;
27402;SDS011;14862;49.494;8.530;2022-10-16T01:52:49;6.43;;;3.60;;
27402;SDS011;14862;49.494;8.530;2022-10-16T01:55:17;6.18;;;3.88;;
27402;SDS011;14862;49.494;8.530;2022-10-16T01:57:44;5.53;;;3.72;;
27402;SDS011;14862;49.494;8.530;2022-10-16T02:00:12;5.82;;;3.80;;
27402;SDS011;14862;49.494;8.530;2022-10-16T02:02:38;4.85;;;3.88;;
27402;SDS011;14862;49.494;8.530;2022-10-16T02:05:05;4.70;;;3.88;;
27402;SDS011;14862;49.494;8.530;2022-10-16T02:07:34;9.88;;;3.65;;
27402;SDS011;14862;49.494;8.530;2022-10-16T02:09:59;8.50;;;4.03;;
27402;SDS011;14862;49.494;8.530;2022-10-16T02:12:26;5.05;;;3.85;;
27402;SDS011;14862;49.494;8.530;2022-10-16T02:14:52;5.03;;;3.65;;
27402;SDS011;14862;49.494;8.530;2022-10-16T02:17:18;4.72;;;3.80;;
27402;SDS011;14862;49.494;8.530;2022-10-16T02:19:43;6.85;;;4.82;;
27402;SDS011;14862;49.494;8.530;2022-10-16T02:22:10;7.50;;;4.05;;
27402;SDS011;14862;49.494;8.530;2022-10-16T02:24:59;7.35;;;3.92;;
27402;SDS011;14862;49.494;8.530;2022-10-16T02:27:27;4.93;;;3.33;;
27402;SDS011;14862;49.494;8.530;2022-10-16T02:29:58;11.13;;;3.83;;
27402;SDS011;14862;49.494;8.530;2022-10-16T02:32:27;3.95;;;3.00;;
27402;SDS011;14862;49.494;8.530;2022-10-16T02:34:55;5.43;;;2.90;;
27402;SDS011;14862;49.494;8.530;2022-10-16T02:37:21;6.45;;;3.28;;
27402;SDS011;14862;49.494;8.530;2022-10-16T02:39:46;6.65;;;3.50;;
27402;SDS011;14862;49.494;8.530;2022-10-16T02:42:12;5.07;;;2.83;;
27402;SDS011;14862;49.494;8.530;2022-10-16T02:44:37;6.00;;;2.70;;
27402;SDS011;14862;49.494;8.530;2022-10-16T02:47:03;7.43;;;3.17;;
27402;SDS011;14862;49.494;8.530;2022-10-16T02:49:28;3.57;;;2.70;;
27402;SDS011;14862;49.494;8.530;2022-10-16T02:51:53;4.13;;;2.40;;
27402;SDS011;14862;49.494;8.530;2022-10-16T02:54:18;4.15;;;2.80;;
27402;SDS011;14862;49.494;8.530;2022-10-16T02:56:43;5.38;;;2.92;;
27402;SDS011;14862;49.494;8.530;2022-10-16T02:59:09;7.53;;;2.93;;
27402;SDS011;14862;49.494;8.530;2022-10-16T03:01:34;6.05;;;2.58;;
27402;SDS011;14862;49.494;8.530;2022-10-16T03:03:59;3.53;;;2.83;;
27402;SDS011;14862;49.494;8.530;2022-10-16T03:06:24;3.50;;;2.92;;
27402;SDS011;14862;49.494;8.530;2022-10-16T03:08:49;5.85;;;3.38;;
27402;SDS011;14862;49.494;8.530;2022-10-16T03:11:15;7.07;;;2.47;;
27402;SDS011;14862;49.494;8.530;2022-10-16T03:13:40;4.68;;;2.90;;
27402;SDS011;14862;49.494;8.530;2022-10-16T03:16:05;6.20;;;3.38;;
27402;SDS011;14862;49.494;8.530;2022-10-16T03:18:30;9.48;;;3.50;;
27402;SDS011;14862;49.494;8.530;2022-10-16T03:20:55;6.25;;;3.50;;
27402;SDS011;14862;49.494;8.530;2022-10-16T03:23:21;4.80;;;3.83;;
27402;SDS011;14862;49.494;8.530;2022-10-16T03:25:46;7.07;;;4.30;;
27402;SDS011;14862;49.494;8.530;2022-10-16T03:28:11;5.87;;;3.20;;
27402;SDS011;14862;49.494;8.530;2022-10-16T03:30:36;5.10;;;3.30;;
27402;SDS011;14862;49.494;8.530;2022-10-16T03:33:02;6.38;;;2.92;;
27402;SDS011;14862;49.494;8.530;2022-10-16T03:35:27;3.92;;;2.97;;
27402;SDS011;14862;49.494;8.530;2022-10-16T03:37:52;5.82;;;3.10;;
27402;SDS011;14862;49.494;8.530;2022-10-16T03:40:17;8.23;;;2.97;;
27402;SDS011;14862;49.494;8.530;2022-10-16T03:42:43;6.63;;;3.10;;
27402;SDS011;14862;49.494;8.530;2022-10-16T03:45:09;3.88;;;2.80;;
27402;SDS011;14862;49.494;8.530;2022-10-16T03:47:34;5.68;;;2.50;;
27402;SDS011;14862;49.494;8.530;2022-10-16T03:49:59;3.40;;;2.80;;
27402;SDS011;14862;49.494;8.530;2022-10-16T03:52:25;4.28;;;2.33;;
27402;SDS011;14862;49.494;8.530;2022-10-16T03:54:50;8.68;;;2.65;;
27402;SDS011;14862;49.494;8.530;2022-10-16T03:57:16;4.15;;;2.85;;
27402;SDS011;14862;49.494;8.530;2022-10-16T03:59:41;5.43;;;2.80;;
27402;SDS011;14862;49.494;8.530;2022-10-16T04:02:06;4.60;;;2.90;;
27402;SDS011;14862;49.494;8.530;2022-10-16T04:04:31;4.97;;;3.30;;
27402;SDS011;14862;49.494;8.530;2022-10-16T04:06:56;7.13;;;3.03;;
27402;SDS011;14862;49.494;8.530;2022-10-16T04:09:22;7.03;;;2.83;;
27402;SDS011;14862;49.494;8.530;2022-10-16T04:11:47;7.38;;;2.97;;
27402;SDS011;14862;49.494;8.530;2022-10-16T04:14:12;3.20;;;2.63;;
27402;SDS011;14862;49.494;8.530;2022-10-16T04:16:37;4.45;;;2.40;;
27402;SDS011;14862;49.494;8.530;2022-10-16T04:19:03;8.00;;;2.80;;
27402;SDS011;14862;49.494;8.530;2022-10-16T04:21:28;2.70;;;2.08;;
27402;SDS011;14862;49.494;8.530;2022-10-16T04:23:53;3.63;;;2.65;;
27402;SDS011;14862;49.494;8.530;2022-10-16T04:26:18;3.70;;;3.15;;
27402;SDS011;14862;49.494;8.530;2022-10-16T04:28:44;3.08;;;2.05;;
27402;SDS011;14862;49.494;8.530;2022-10-16T04:31:09;6.82;;;2.88;;
27402;SDS011;14862;49.494;8.530;2022-10-16T04:33:34;4.47;;;2.10;;
27402;SDS011;14862;49.494;8.530;2022-10-16T04:36:00;2.70;;;2.45;;
27402;SDS011;14862;49.494;8.530;2022-10-16T04:38:25;6.28;;;2.45;;
27402;SDS011;14862;49.494;8.530;2022-10-16T04:40:51;3.65;;;2.38;;
27402;SDS011;14862;49.494;8.530;2022-10-16T04:43:16;8.30;;;2.90;;
27402;SDS011;14862;49.494;8.530;2022-10-16T04:45:41;6.63;;;2.40;;
27402;SDS011;14862;49.494;8.530;2022-10-16T04:48:06;4.57;;;3.47;;
27402;SDS011;14862;49.494;8.530;2022-10-16T04:50:32;6.07;;;3.42;;
27402;SDS011;14862;49.494;8.530;2022-10-16T04:52:57;2.95;;;2.45;;
27402;SDS011;14862;49.494;8.530;2022-10-16T04:55:22;3.93;;;2.60;;
27402;SDS011;14862;49.494;8.530;2022-10-16T04:57:47;4.40;;;2.67;;
27402;SDS011;14862;49.494;8.530;2022-10-16T05:00:12;7.90;;;3.53;;
27402;SDS011;14862;49.494;8.530;2022-10-16T05:02:38;6.85;;;3.03;;
27402;SDS011;14862;49.494;8.530;2022-10-16T05:05:03;7.82;;;3.90;;
27402;SDS011;14862;49.494;8.530;2022-10-16T05:07:28;6.20;;;3.40;;
27402;SDS011;14862;49.494;8.530;2022-10-16T05:09:53;6.70;;;3.90;;
27402;SDS011;14862;49.494;8.530;2022-10-16T05:12:19;8.50;;;3.20;;
27402;SDS011;14862;49.494;8.530;2022-10-16T05:14:44;4.85;;;3.17;;
27402;SDS011;14862;49.494;8.530;2022-10-16T05:17:09;5.80;;;3.42;;
27402;SDS011;14862;49.494;8.530;2022-10-16T05:19:34;8.98;;;5.55;;
27402;SDS011;14862;49.494;8.530;2022-10-16T05:22:00;14.65;;;7.78;;
27402;SDS011;14862;49.494;8.530;2022-10-16T05:24:25;6.85;;;3.55;;
27402;SDS011;14862;49.494;8.530;2022-10-16T05:26:51;5.70;;;2.65;;
27402;SDS011;14862;49.494;8.530;2022-10-16T05:29:17;4.95;;;2.90;;
27402;SDS011;14862;49.494;8.530;2022-10-16T05:31:42;3.40;;;2.60;;
27402;SDS011;14862;49.494;8.530;2022-10-16T05:34:07;4.95;;;2.42;;
27402;SDS011;14862;49.494;8.530;2022-10-16T05:36:32;5.13;;;3.08;;
27402;SDS011;14862;49.494;8.530;2022-10-16T05:38:58;4.77;;;3.13;;
27402;SDS011;14862;49.494;8.530;2022-10-16T05:41:23;5.47;;;3.40;;
27402;SDS011;14862;49.494;8.530;2022-10-16T05:43:50;8.05;;;2.92;;
27402;SDS011;14862;49.494;8.530;2022-10-16T05:46:16;8.35;;;2.70;;
27402;SDS011;14862;49.494;8.530;2022-10-16T05:48:41;6.18;;;3.25;;
27402;SDS011;14862;49.494;8.530;2022-10-16T05:51:07;3.78;;;3.22;;
27402;SDS011;14862;49.494;8.530;2022-10-16T05:53:34;4.10;;;2.78;;
27402;SDS011;14862;49.494;8.530;2022-10-16T05:55:59;3.53;;;2.40;;
27402;SDS011;14862;49.494;8.530;2022-10-16T05:58:25;4.47;;;2.33;;
27402;SDS011;14862;49.494;8.530;2022-10-16T06:00:54;4.18;;;2.20;;
27402;SDS011;14862;49.494;8.530;2022-10-16T06:03:20;2.85;;;2.40;;
27402;SDS011;14862;49.494;8.530;2022-10-16T06:05:45;3.92;;;2.28;;
27402;SDS011;14862;49.494;8.530;2022-10-16T06:08:10;3.67;;;2.30;;
27402;SDS011;14862;49.494;8.530;2022-10-16T06:10:35;7.30;;;2.53;;
27402;SDS011;14862;49.494;8.530;2022-10-16T06:13:00;4.05;;;2.40;;
27402;SDS011;14862;49.494;8.530;2022-10-16T06:15:26;5.27;;;2.27;;
27402;SDS011;14862;49.494;8.530;2022-10-16T06:17:51;4.05;;;2.50;;
27402;SDS011;14862;49.494;8.530;2022-10-16T06:20:16;4.63;;;2.00;;
27402;SDS011;14862;49.494;8.530;2022-10-16T06:22:41;5.00;;;2.77;;
27402;SDS011;14862;49.494;8.530;2022-10-16T06:25:06;7.00;;;2.20;;
27402;SDS011;14862;49.494;8.530;2022-10-16T06:27:32;4.45;;;2.33;;
27402;SDS011;14862;49.494;8.530;2022-10-16T06:29:57;1.90;;;1.80;;
27402;SDS011;14862;49.494;8.530;2022-10-16T06:32:22;1.70;;;1.60;;
27402;SDS011;14862;49.494;8.530;2022-10-16T06:34:47;2.63;;;2.00;;
27402;SDS011;14862;49.494;8.530;2022-10-16T06:37:13;3.33;;;1.67;;
27402;SDS011;14862;49.494;8.530;2022-10-16T06:39:38;3.45;;;1.83;;
27402;SDS011;14862;49.494;8.530;2022-10-16T06:42:03;4.32;;;2.05;;
27402;SDS011;14862;49.494;8.530;2022-10-16T06:44:29;4.90;;;2.40;;
27402;SDS011;14862;49.494;8.530;2022-10-16T06:46:54;7.65;;;1.90;;
27402;SDS011;14862;49.494;8.530;2022-10-16T06:49:19;4.97;;;1.80;;
27402;SDS011;14862;49.494;8.530;2022-10-16T06:51:47;7.60;;;2.45;;
27402;SDS011;14862;49.494;8.530;2022-10-16T06:54:12;9.07;;;3.58;;
27402;SDS011;14862;49.494;8.530;2022-10-16T06:56:38;5.72;;;2.67;;
27402;SDS011;14862;49.494;8.530;2022-10-16T06:59:03;4.55;;;2.85;;
27402;SDS011;14862;49.494;8.530;2022-10-16T07:01:28;5.90;;;2.55;;
27402;SDS011;14862;49.494;8.530;2022-10-16T07:03:53;6.45;;;2.95;;
27402;SDS011;14862;49.494;8.530;2022-10-16T07:06:19;6.57;;;2.25;;
27402;SDS011;14862;49.494;8.530;2022-10-16T07:08:45;2.75;;;2.38;;
27402;SDS011;14862;49.494;8.530;2022-10-16T07:11:12;6.32;;;3.75;;
27402;SDS011;14862;49.494;8.530;2022-10-16T07:13:39;5.85;;;3.08;;
27402;SDS011;14862;49.494;8.530;2022-10-16T07:16:08;4.10;;;2.42;;
27402;SDS011;14862;49.494;8.530;2022-10-16T07:18:34;7.95;;;3.35;;
27402;SDS011;14862;49.494;8.530;2022-10-16T07:21:06;9.63;;;3.10;;
27402;SDS011;14862;49.494;8.530;2022-10-16T07:23:32;5.53;;;2.90;;
27402;SDS011;14862;49.494;8.530;2022-10-16T07:25:57;3.90;;;2.53;;
27402;SDS011;14862;49.494;8.530;2022-10-16T07:28:22;2.75;;;2.50;;
27402;SDS011;14862;49.494;8.530;2022-10-16T07:30:48;5.10;;;2.78;;
27402;SDS011;14862;49.494;8.530;2022-10-16T07:33:13;2.60;;;2.40;;
27402;SDS011;14862;49.494;8.530;2022-10-16T07:35:46;4.03;;;3.30;;
27402;SDS011;14862;49.494;8.530;2022-10-16T07:38:12;2.65;;;2.42;;
27402;SDS011;14862;49.494;8.530;2022-10-16T07:40:37;5.67;;;2.57;;
27402;SDS011;14862;49.494;8.530;2022-10-16T07:43:02;5.55;;;2.40;;
27402;SDS011;14862;49.494;8.530;2022-10-16T07:45:30;4.35;;;2.60;;
27402;SDS011;14862;49.494;8.530;2022-10-16T07:47:55;4.22;;;2.78;;
27402;SDS011;14862;49.494;8.530;2022-10-16T07:50:20;5.72;;;3.58;;
27402;SDS011;14862;49.494;8.530;2022-10-16T07:52:45;6.47;;;4.10;;
27402;SDS011;14862;49.494;8.530;2022-10-16T07:55:11;6.50;;;3.10;;
27402;SDS011;14862;49.494;8.530;2022-10-16T07:57:36;5.70;;;2.95;;
27402;SDS011;14862;49.494;8.530;2022-10-16T08:00:02;4.03;;;2.40;;
27402;SDS011;14862;49.494;8.530;2022-10-16T08:02:27;3.72;;;2.53;;
27402;SDS011;14862;49.494;8.530;2022-10-16T08:04:52;5.23;;;2.60;;
27402;SDS011;14862;49.494;8.530;2022-10-16T08:07:17;7.32;;;3.35;;
27402;SDS011;14862;49.494;8.530;2022-10-16T08:09:42;5.83;;;3.90;;
27402;SDS011;14862;49.494;8.530;2022-10-16T08:12:08;8.02;;;4.10;;
27402;SDS011;14862;49.494;8.530;2022-10-16T08:14:35;5.35;;;2.78;;
27402;SDS011;14862;49.494;8.530;2022-10-16T08:17:00;4.17;;;2.50;;
27402;SDS011;14862;49.494;8.530;2022-10-16T08:19:26;3.42;;;2.50;;
27402;SDS011;14862;49.494;8.530;2022-10-16T08:21:52;5.80;;;2.30;;
27402;SDS011;14862;49.494;8.530;2022-10-16T08:24:17;4.72;;;2.03;;
27402;SDS011;14862;49.494;8.530;2022-10-16T08:26:42;5.32;;;2.13;;
27402;SDS011;14862;49.494;8.530;2022-10-16T08:29:07;6.68;;;2.30;;
27402;SDS011;14862;49.494;8.530;2022-10-16T08:31:33;4.75;;;2.35;;
27402;SDS011;14862;49.494;8.530;2022-10-16T08:33:58;6.03;;;2.33;;
27402;SDS011;14862;49.494;8.530;2022-10-16T08:36:23;5.53;;;2.13;;
27402;SDS011;14862;49.494;8.530;2022-10-16T08:38:49;3.00;;;1.75;;
27402;SDS011;14862;49.494;8.530;2022-10-16T08:46:27;4.90;;;2.00;;
27402;SDS011;14862;49.494;8.530;2022-10-16T08:48:56;7.60;;;2.30;;
27402;SDS011;14862;49.494;8.530;2022-10-16T08:51:23;4.07;;;1.70;;
27402;SDS011;14862;49.494;8.530;2022-10-16T08:53:59;11.02;;;2.50;;
27402;SDS011;14862;49.494;8.530;2022-10-16T08:56:26;13.60;;;4.75;;
27402;SDS011;14862;49.494;8.530;2022-10-16T08:58:52;9.25;;;1.80;;
27402;SDS011;14862;49.494;8.530;2022-10-16T09:01:19;6.13;;;2.55;;
27402;SDS011;14862;49.494;8.530;2022-10-16T09:06:22;9.48;;;4.30;;
27402;SDS011;14862;49.494;8.530;2022-10-16T09:08:58;8.95;;;3.90;;
27402;SDS011;14862;49.494;8.530;2022-10-16T09:16:29;6.22;;;3.65;;
27402;SDS011;14862;49.494;8.530;2022-10-16T09:21:53;8.20;;;2.72;;
27402;SDS011;14862;49.494;8.530;2022-10-16T09:24:23;4.20;;;2.38;;
27402;SDS011;14862;49.494;8.530;2022-10-16T09:26:49;3.67;;;2.58;;
27402;SDS011;14862;49.494;8.530;2022-10-16T09:29:18;4.22;;;2.63;;
27402;SDS011;14862;49.494;8.530;2022-10-16T09:31:50;4.57;;;2.70;;
27402;SDS011;14862;49.494;8.530;2022-10-16T09:36:44;3.58;;;2.30;;
27402;SDS011;14862;49.494;8.530;2022-10-16T09:39:11;3.78;;;2.30;;
27402;SDS011;14862;49.494;8.530;2022-10-16T09:41:40;5.70;;;2.10;;
27402;SDS011;14862;49.494;8.530;2022-10-16T09:44:28;5.93;;;2.42;;
27402;SDS011;14862;49.494;8.530;2022-10-16T09:47:02;5.47;;;2.53;;
27402;SDS011;14862;49.494;8.530;2022-10-16T09:49:27;6.30;;;1.80;;
27402;SDS011;14862;49.494;8.530;2022-10-16T09:52:09;4.78;;;1.83;;
27402;SDS011;14862;49.494;8.530;2022-10-16T09:54:36;6.27;;;2.30;;
27402;SDS011;14862;49.494;8.530;2022-10-16T09:57:07;4.93;;;2.35;;
27402;SDS011;14862;49.494;8.530;2022-10-16T09:59:44;4.80;;;2.17;;
27402;SDS011;14862;49.494;8.530;2022-10-16T10:02:11;7.53;;;2.35;;
27402;SDS011;14862;49.494;8.530;2022-10-16T10:04:39;6.45;;;2.17;;
27402;SDS011;14862;49.494;8.530;2022-10-16T10:07:05;3.97;;;2.30;;
27402;SDS011;14862;49.494;8.530;2022-10-16T10:09:39;8.32;;;2.25;;
27402;SDS011;14862;49.494;8.530;2022-10-16T10:12:20;5.78;;;2.22;;
27402;SDS011;14862;49.494;8.530;2022-10-16T10:14:47;2.38;;;2.10;;
27402;SDS011;14862;49.494;8.530;2022-10-16T10:17:15;3.70;;;2.13;;
27402;SDS011;14862;49.494;8.530;2022-10-16T10:19:51;6.47;;;2.92;;
27402;SDS011;14862;49.494;8.530;2022-10-16T10:24:42;7.10;;;2.23;;
27402;SDS011;14862;49.494;8.530;2022-10-16T10:27:10;3.55;;;2.65;;
27402;SDS011;14862;49.494;8.530;2022-10-16T10:29:56;5.03;;;2.83;;
27402;SDS011;14862;49.494;8.530;2022-10-16T10:32:35;5.47;;;2.20;;
27402;SDS011;14862;49.494;8.530;2022-10-16T10:35:20;5.57;;;2.50;;
27402;SDS011;14862;49.494;8.530;2022-10-16T10:43:09;4.50;;;1.95;;
27402;SDS011;14862;49.494;8.530;2022-10-16T10:45:48;4.40;;;2.50;;
27402;SDS011;14862;49.494;8.530;2022-10-16T10:48:20;4.80;;;2.35;;
27402;SDS011;14862;49.494;8.530;2022-10-16T10:50:49;5.05;;;1.65;;
27402;SDS011;14862;49.494;8.530;2022-10-16T10:55:46;5.20;;;2.27;;
27402;SDS011;14862;49.494;8.530;2022-10-16T11:00:41;4.70;;;2.13;;
27402;SDS011;14862;49.494;8.530;2022-10-16T11:08:26;3.67;;;2.00;;
27402;SDS011;14862;49.494;8.530;2022-10-16T11:11:03;8.93;;;2.20;;
27402;SDS011;14862;49.494;8.530;2022-10-16T11:13:37;3.00;;;2.10;;
27402;SDS011;14862;49.494;8.530;2022-10-16T11:16:14;5.45;;;1.83;;
27402;SDS011;14862;49.494;8.530;2022-10-16T11:18:52;6.40;;;1.90;;
27402;SDS011;14862;49.494;8.530;2022-10-16T11:21:20;4.25;;;2.50;;
27402;SDS011;14862;49.494;8.530;2022-10-16T11:23:59;6.65;;;2.05;;
27402;SDS011;14862;49.494;8.530;2022-10-16T11:26:27;4.10;;;1.73;;
27402;SDS011;14862;49.494;8.530;2022-10-16T11:28:54;8.63;;;2.00;;
27402;SDS011;14862;49.494;8.530;2022-10-16T11:33:56;6.85;;;2.22;;
27402;SDS011;14862;49.494;8.530;2022-10-16T11:36:33;3.88;;;2.47;;
27402;SDS011;14862;49.494;8.530;2022-10-16T11:39:02;5.95;;;2.22;;
27402;SDS011;14862;49.494;8.530;2022-10-16T11:46:28;5.25;;;3.22;;
27402;SDS011;14862;49.494;8.530;2022-10-16T11:48:58;3.67;;;2.03;;
27402;SDS011;14862;49.494;8.530;2022-10-16T11:51:35;6.20;;;2.40;;
27402;SDS011;14862;49.494;8.530;2022-10-16T11:56:46;5.25;;;2.70;;
27402;SDS011;14862;49.494;8.530;2022-10-16T12:01:51;7.13;;;2.65;;
27402;SDS011;14862;49.494;8.530;2022-10-16T12:04:21;5.10;;;2.50;;
27402;SDS011;14862;49.494;8.530;2022-10-16T12:06:50;5.03;;;2.28;;
27402;SDS011;14862;49.494;8.530;2022-10-16T12:11:42;6.40;;;2.08;;
27402;SDS011;14862;49.494;8.530;2022-10-16T12:14:18;4.73;;;2.50;;
27402;SDS011;14862;49.494;8.530;2022-10-16T12:16:55;3.35;;;1.73;;
27402;SDS011;14862;49.494;8.530;2022-10-16T12:19:21;6.88;;;4.65;;
27402;SDS011;14862;49.494;8.530;2022-10-16T12:21:46;6.72;;;4.28;;
27402;SDS011;14862;49.494;8.530;2022-10-16T12:26:57;3.90;;;1.90;;
27402;SDS011;14862;49.494;8.530;2022-10-16T12:29:41;5.93;;;2.25;;
27402;SDS011;14862;49.494;8.530;2022-10-16T12:34:46;4.10;;;2.03;;
27402;SDS011;14862;49.494;8.530;2022-10-16T12:39:37;7.70;;;2.60;;
27402;SDS011;14862;49.494;8.530;2022-10-16T12:42:03;2.88;;;2.03;;
27402;SDS011;14862;49.494;8.530;2022-10-16T12:44:33;5.78;;;2.22;;
27402;SDS011;14862;49.494;8.530;2022-10-16T12:47:00;4.63;;;1.98;;
27402;SDS011;14862;49.494;8.530;2022-10-16T12:51:53;4.22;;;2.33;;
27402;SDS011;14862;49.494;8.530;2022-10-16T12:54:29;4.00;;;2.25;;
27402;SDS011;14862;49.494;8.530;2022-10-16T13:04:36;5.68;;;2.15;;
27402;SDS011;14862;49.494;8.530;2022-10-16T13:09:52;4.63;;;2.10;;
27402;SDS011;14862;49.494;8.530;2022-10-16T13:20:14;5.30;;;2.13;;
27402;SDS011;14862;49.494;8.530;2022-10-16T13:32:49;4.22;;;1.52;;
27402;SDS011;14862;49.494;8.530;2022-10-16T13:35:34;2.97;;;1.83;;
27402;SDS011;14862;49.494;8.530;2022-10-16T13:38:13;2.75;;;1.77;;
27402;SDS011;14862;49.494;8.530;2022-10-16T13:43:43;5.15;;;2.28;;
27402;SDS011;14862;49.494;8.530;2022-10-16T13:46:14;6.35;;;2.20;;
27402;SDS011;14862;49.494;8.530;2022-10-16T13:48:40;4.80;;;2.65;;
27402;SDS011;14862;49.494;8.530;2022-10-16T13:51:12;4.70;;;2.83;;
27402;SDS011;14862;49.494;8.530;2022-10-16T13:53:38;8.90;;;2.50;;
27402;SDS011;14862;49.494;8.530;2022-10-16T13:56:04;6.63;;;2.03;;
27402;SDS011;14862;49.494;8.530;2022-10-16T13:58:30;10.18;;;2.10;;
27402;SDS011;14862;49.494;8.530;2022-10-16T14:01:00;4.95;;;2.58;;
27402;SDS011;14862;49.494;8.530;2022-10-16T14:03:26;5.00;;;2.13;;
27402;SDS011;14862;49.494;8.530;2022-10-16T14:05:52;4.35;;;2.38;;
27402;SDS011;14862;49.494;8.530;2022-10-16T14:08:18;2.42;;;2.17;;
27402;SDS011;14862;49.494;8.530;2022-10-16T14:10:47;5.05;;;1.92;;
27402;SDS011;14862;49.494;8.530;2022-10-16T14:13:14;4.55;;;1.80;;
27402;SDS011;14862;49.494;8.530;2022-10-16T14:15:45;2.42;;;2.15;;
27402;SDS011;14862;49.494;8.530;2022-10-16T14:18:14;5.82;;;1.80;;
27402;SDS011;14862;49.494;8.530;2022-10-16T14:20:42;5.13;;;2.15;;
27402;SDS011;14862;49.494;8.530;2022-10-16T14:23:20;4.90;;;2.13;;
27402;SDS011;14862;49.494;8.530;2022-10-16T14:25:45;3.20;;;2.25;;
27402;SDS011;14862;49.494;8.530;2022-10-16T14:28:15;8.52;;;3.30;;
27402;SDS011;14862;49.494;8.530;2022-10-16T14:30:59;4.43;;;2.40;;
27402;SDS011;14862;49.494;8.530;2022-10-16T14:36:04;5.28;;;2.63;;
27402;SDS011;14862;49.494;8.530;2022-10-16T14:38:29;6.22;;;3.35;;
27402;SDS011;14862;49.494;8.530;2022-10-16T14:40:56;6.05;;;3.25;;
27402;SDS011;14862;49.494;8.530;2022-10-16T14:43:22;4.70;;;2.88;;
27402;SDS011;14862;49.494;8.530;2022-10-16T14:45:50;6.00;;;2.47;;
27402;SDS011;14862;49.494;8.530;2022-10-16T14:48:17;8.93;;;2.60;;
27402;SDS011;14862;49.494;8.530;2022-10-16T14:50:42;5.80;;;3.10;;
27402;SDS011;14862;49.494;8.530;2022-10-16T14:53:10;6.95;;;3.22;;
27402;SDS011;14862;49.494;8.530;2022-10-16T14:55:36;6.50;;;3.58;;
27402;SDS011;14862;49.494;8.530;2022-10-16T14:58:01;6.28;;;3.78;;
27402;SDS011;14862;49.494;8.530;2022-10-16T15:00:27;4.32;;;2.75;;
27402;SDS011;14862;49.494;8.530;2022-10-16T15:02:52;4.32;;;3.10;;
27402;SDS011;14862;49.494;8.530;2022-10-16T15:05:18;4.68;;;2.47;;
27402;SDS011;14862;49.494;8.530;2022-10-16T15:07:44;2.90;;;2.58;;
27402;SDS011;14862;49.494;8.530;2022-10-16T15:10:10;4.65;;;3.13;;
27402;SDS011;14862;49.494;8.530;2022-10-16T15:12:35;5.13;;;2.58;;
27402;SDS011;14862;49.494;8.530;2022-10-16T15:15:01;3.20;;;2.67;;
27402;SDS011;14862;49.494;8.530;2022-10-16T15:17:26;5.25;;;2.40;;
27402;SDS011;14862;49.494;8.530;2022-10-16T15:19:51;2.27;;;2.00;;
27402;SDS011;14862;49.494;8.530;2022-10-16T15:22:16;5.40;;;1.93;;
27402;SDS011;14862;49.494;8.530;2022-10-16T15:24:42;4.50;;;1.88;;
27402;SDS011;14862;49.494;8.530;2022-10-16T15:27:07;2.70;;;2.25;;
27402;SDS011;14862;49.494;8.530;2022-10-16T15:29:33;3.03;;;2.42;;
27402;SDS011;14862;49.494;8.530;2022-10-16T15:31:58;8.63;;;2.60;;
27402;SDS011;14862;49.494;8.530;2022-10-16T15:34:23;3.63;;;2.13;;
27402;SDS011;14862;49.494;8.530;2022-10-16T15:36:48;2.97;;;2.25;;
27402;SDS011;14862;49.494;8.530;2022-10-16T15:39:15;5.90;;;2.60;;
27402;SDS011;14862;49.494;8.530;2022-10-16T15:41:41;3.92;;;2.35;;
27402;SDS011;14862;49.494;8.530;2022-10-16T15:44:06;7.25;;;2.20;;
27402;SDS011;14862;49.494;8.530;2022-10-16T15:46:31;6.40;;;2.42;;
27402;SDS011;14862;49.494;8.530;2022-10-16T15:48:58;5.55;;;2.65;;
27402;SDS011;14862;49.494;8.530;2022-10-16T15:51:24;5.25;;;2.75;;
27402;SDS011;14862;49.494;8.530;2022-10-16T15:53:49;2.85;;;2.58;;
27402;SDS011;14862;49.494;8.530;2022-10-16T15:56:16;3.35;;;2.33;;
27402;SDS011;14862;49.494;8.530;2022-10-16T15:58:41;5.53;;;2.58;;
27402;SDS011;14862;49.494;8.530;2022-10-16T16:01:07;5.18;;;3.05;;
27402;SDS011;14862;49.494;8.530;2022-10-16T16:03:34;4.03;;;2.40;;
27402;SDS011;14862;49.494;8.530;2022-10-16T16:06:04;4.15;;;2.38;;
27402;SDS011;14862;49.494;8.530;2022-10-16T16:08:30;5.47;;;2.72;;
27402;SDS011;14862;49.494;8.530;2022-10-16T16:10:59;7.30;;;2.45;;
27402;SDS011;14862;49.494;8.530;2022-10-16T16:13:24;6.50;;;2.50;;
27402;SDS011;14862;49.494;8.530;2022-10-16T16:15:50;4.50;;;2.50;;
27402;SDS011;14862;49.494;8.530;2022-10-16T16:18:15;6.30;;;2.60;;
27402;SDS011;14862;49.494;8.530;2022-10-16T16:20:40;3.30;;;2.53;;
27402;SDS011;14862;49.494;8.530;2022-10-16T16:23:05;5.80;;;2.83;;
27402;SDS011;14862;49.494;8.530;2022-10-16T16:25:31;5.80;;;3.15;;
27402;SDS011;14862;49.494;8.530;2022-10-16T16:27:56;3.97;;;2.80;;
27402;SDS011;14862;49.494;8.530;2022-10-16T16:30:21;8.65;;;3.40;;
27402;SDS011;14862;49.494;8.530;2022-10-16T16:32:46;6.53;;;3.00;;
27402;SDS011;14862;49.494;8.530;2022-10-16T16:35:12;6.78;;;2.70;;